sensor_id;sensor_type;location;lat;lon;timestamp;P1;durP1;ratioP1;P2;durP2;ratioP2
36315;SDS011;22343;50.820;2.666;2022-12-07T00:01:54;10.23;;;5.93;;
36315;SDS011;22343;50.820;2.666;2022-12-07T00:04:39;7.10;;;5.33;;
36315;SDS011;22343;50.820;2.666;2022-12-07T00:07:29;11.77;;;6.17;;
36315;SDS011;22343;50.820;2.666;2022-12-07T00:10:18;8.23;;;5.77;;
36315;SDS011;22343;50.820;2.666;2022-12-07T00:13:03;9.00;;;6.10;;
36315;SDS011;22343;50.820;2.666;2022-12-07T00:15:48;14.03;;;6.10;;
36315;SDS011;22343;50.820;2.666;2022-12-07T00:18:44;8.60;;;6.00;;
36315;SDS011;22343;50.820;2.666;2022-12-07T00:21:35;10.97;;;6.13;;
36315;SDS011;22343;50.820;2.666;2022-12-07T00:24:21;9.77;;;6.17;;
36315;SDS011;22343;50.820;2.666;2022-12-07T00:27:07;9.87;;;5.90;;
36315;SDS011;22343;50.820;2.666;2022-12-07T00:29:52;10.67;;;6.13;;
36315;SDS011;22343;50.820;2.666;2022-12-07T00:32:41;13.87;;;6.80;;
36315;SDS011;22343;50.820;2.666;2022-12-07T00:35:27;8.43;;;6.30;;
36315;SDS011;22343;50.820;2.666;2022-12-07T00:38:22;11.37;;;7.50;;
36315;SDS011;22343;50.820;2.666;2022-12-07T00:41:19;10.50;;;6.80;;
36315;SDS011;22343;50.820;2.666;2022-12-07T00:44:05;11.97;;;6.57;;
36315;SDS011;22343;50.820;2.666;2022-12-07T00:46:55;10.60;;;6.60;;
36315;SDS011;22343;50.820;2.666;2022-12-07T00:49:43;10.90;;;6.63;;
36315;SDS011;22343;50.820;2.666;2022-12-07T00:52:30;12.10;;;6.90;;
36315;SDS011;22343;50.820;2.666;2022-12-07T00:55:16;8.53;;;6.20;;
36315;SDS011;22343;50.820;2.666;2022-12-07T00:58:05;10.40;;;6.30;;
36315;SDS011;22343;50.820;2.666;2022-12-07T01:00:51;11.63;;;6.90;;
36315;SDS011;22343;50.820;2.666;2022-12-07T01:03:40;9.97;;;6.23;;
36315;SDS011;22343;50.820;2.666;2022-12-07T01:06:26;8.57;;;6.23;;
36315;SDS011;22343;50.820;2.666;2022-12-07T01:09:13;8.37;;;5.97;;
36315;SDS011;22343;50.820;2.666;2022-12-07T01:11:57;12.97;;;6.27;;
36315;SDS011;22343;50.820;2.666;2022-12-07T01:14:43;11.53;;;6.97;;
36315;SDS011;22343;50.820;2.666;2022-12-07T01:17:32;14.23;;;7.67;;
36315;SDS011;22343;50.820;2.666;2022-12-07T01:20:17;15.47;;;8.40;;
36315;SDS011;22343;50.820;2.666;2022-12-07T01:23:01;16.60;;;8.80;;
36315;SDS011;22343;50.820;2.666;2022-12-07T01:25:46;12.87;;;8.83;;
36315;SDS011;22343;50.820;2.666;2022-12-07T01:28:41;14.23;;;9.07;;
36315;SDS011;22343;50.820;2.666;2022-12-07T01:31:27;15.37;;;8.97;;
36315;SDS011;22343;50.820;2.666;2022-12-07T01:34:12;15.13;;;9.60;;
36315;SDS011;22343;50.820;2.666;2022-12-07T01:36:57;16.00;;;10.00;;
36315;SDS011;22343;50.820;2.666;2022-12-07T01:39:43;20.67;;;11.13;;
36315;SDS011;22343;50.820;2.666;2022-12-07T01:42:28;17.00;;;10.20;;
36315;SDS011;22343;50.820;2.666;2022-12-07T01:48:17;16.83;;;9.93;;
36315;SDS011;22343;50.820;2.666;2022-12-07T01:51:07;17.13;;;10.00;;
36315;SDS011;22343;50.820;2.666;2022-12-07T01:53:55;15.17;;;9.43;;
36315;SDS011;22343;50.820;2.666;2022-12-07T01:56:40;17.10;;;10.43;;
36315;SDS011;22343;50.820;2.666;2022-12-07T01:59:31;15.53;;;9.60;;
36315;SDS011;22343;50.820;2.666;2022-12-07T02:02:19;15.33;;;9.40;;
36315;SDS011;22343;50.820;2.666;2022-12-07T02:05:08;15.50;;;9.37;;
36315;SDS011;22343;50.820;2.666;2022-12-07T02:07:55;17.17;;;9.93;;
36315;SDS011;22343;50.820;2.666;2022-12-07T02:10:41;17.03;;;9.83;;
36315;SDS011;22343;50.820;2.666;2022-12-07T02:13:26;16.70;;;9.03;;
36315;SDS011;22343;50.820;2.666;2022-12-07T02:19:39;13.40;;;8.30;;
36315;SDS011;22343;50.820;2.666;2022-12-07T02:24:03;15.60;;;8.60;;
36315;SDS011;22343;50.820;2.666;2022-12-07T02:30:02;12.90;;;7.77;;
36315;SDS011;22343;50.820;2.666;2022-12-07T02:33:03;15.13;;;7.47;;
36315;SDS011;22343;50.820;2.666;2022-12-07T02:39:01;14.73;;;8.00;;
36315;SDS011;22343;50.820;2.666;2022-12-07T02:42:07;14.27;;;7.77;;
36315;SDS011;22343;50.820;2.666;2022-12-07T02:44:56;14.10;;;6.40;;
36315;SDS011;22343;50.820;2.666;2022-12-07T02:47:41;11.47;;;6.43;;
36315;SDS011;22343;50.820;2.666;2022-12-07T02:50:27;11.93;;;6.40;;
36315;SDS011;22343;50.820;2.666;2022-12-07T02:56:49;10.33;;;5.90;;
36315;SDS011;22343;50.820;2.666;2022-12-07T03:03:04;9.03;;;5.37;;
36315;SDS011;22343;50.820;2.666;2022-12-07T03:09:01;9.37;;;5.10;;
36315;SDS011;22343;50.820;2.666;2022-12-07T03:12:00;9.13;;;5.17;;
36315;SDS011;22343;50.820;2.666;2022-12-07T03:14:55;11.00;;;4.97;;
36315;SDS011;22343;50.820;2.666;2022-12-07T03:17:57;10.93;;;5.00;;
36315;SDS011;22343;50.820;2.666;2022-12-07T03:20:43;11.20;;;5.00;;
36315;SDS011;22343;50.820;2.666;2022-12-07T03:23:29;10.67;;;5.60;;
36315;SDS011;22343;50.820;2.666;2022-12-07T03:26:16;9.43;;;5.40;;
36315;SDS011;22343;50.820;2.666;2022-12-07T03:29:05;7.93;;;5.33;;
36315;SDS011;22343;50.820;2.666;2022-12-07T03:31:55;8.73;;;5.20;;
36315;SDS011;22343;50.820;2.666;2022-12-07T03:34:46;10.53;;;5.80;;
36315;SDS011;22343;50.820;2.666;2022-12-07T03:37:39;9.43;;;5.07;;
36315;SDS011;22343;50.820;2.666;2022-12-07T03:40:50;7.97;;;4.83;;
36315;SDS011;22343;50.820;2.666;2022-12-07T03:43:33;10.13;;;5.40;;
36315;SDS011;22343;50.820;2.666;2022-12-07T03:52:58;10.37;;;5.27;;
36315;SDS011;22343;50.820;2.666;2022-12-07T03:55:49;7.60;;;4.57;;
36315;SDS011;22343;50.820;2.666;2022-12-07T03:58:36;8.97;;;4.90;;
36315;SDS011;22343;50.820;2.666;2022-12-07T04:01:22;7.33;;;4.60;;
36315;SDS011;22343;50.820;2.666;2022-12-07T04:04:07;6.03;;;3.80;;
36315;SDS011;22343;50.820;2.666;2022-12-07T04:06:51;7.03;;;3.67;;
36315;SDS011;22343;50.820;2.666;2022-12-07T04:09:35;7.40;;;3.87;;
36315;SDS011;22343;50.820;2.666;2022-12-07T04:12:20;8.27;;;3.63;;
36315;SDS011;22343;50.820;2.666;2022-12-07T04:15:05;8.43;;;3.87;;
36315;SDS011;22343;50.820;2.666;2022-12-07T04:17:52;5.33;;;3.80;;
36315;SDS011;22343;50.820;2.666;2022-12-07T04:20:36;8.03;;;4.03;;
36315;SDS011;22343;50.820;2.666;2022-12-07T04:23:21;4.87;;;2.27;;
36315;SDS011;22343;50.820;2.666;2022-12-07T04:26:06;3.93;;;1.67;;
36315;SDS011;22343;50.820;2.666;2022-12-07T04:28:51;4.07;;;1.70;;
36315;SDS011;22343;50.820;2.666;2022-12-07T04:31:37;3.17;;;1.40;;
36315;SDS011;22343;50.820;2.666;2022-12-07T04:34:22;3.47;;;1.63;;
36315;SDS011;22343;50.820;2.666;2022-12-07T04:37:09;3.07;;;1.70;;
36315;SDS011;22343;50.820;2.666;2022-12-07T04:39:53;4.17;;;1.80;;
36315;SDS011;22343;50.820;2.666;2022-12-07T04:42:37;4.03;;;1.97;;
36315;SDS011;22343;50.820;2.666;2022-12-07T04:45:23;3.50;;;2.17;;
36315;SDS011;22343;50.820;2.666;2022-12-07T04:48:08;3.40;;;2.20;;
36315;SDS011;22343;50.820;2.666;2022-12-07T04:50:54;7.30;;;2.40;;
36315;SDS011;22343;50.820;2.666;2022-12-07T04:53:41;5.00;;;2.30;;
36315;SDS011;22343;50.820;2.666;2022-12-07T04:56:26;4.43;;;2.23;;
36315;SDS011;22343;50.820;2.666;2022-12-07T04:59:15;4.70;;;2.10;;
36315;SDS011;22343;50.820;2.666;2022-12-07T05:02:02;3.97;;;2.10;;
36315;SDS011;22343;50.820;2.666;2022-12-07T05:04:47;4.00;;;2.40;;
36315;SDS011;22343;50.820;2.666;2022-12-07T05:07:32;3.50;;;2.13;;
36315;SDS011;22343;50.820;2.666;2022-12-07T05:10:17;4.77;;;1.77;;
36315;SDS011;22343;50.820;2.666;2022-12-07T05:13:01;5.47;;;2.00;;
36315;SDS011;22343;50.820;2.666;2022-12-07T05:15:47;5.00;;;2.13;;
36315;SDS011;22343;50.820;2.666;2022-12-07T05:18:32;4.17;;;2.00;;
36315;SDS011;22343;50.820;2.666;2022-12-07T05:21:17;5.33;;;1.93;;
36315;SDS011;22343;50.820;2.666;2022-12-07T05:24:02;2.60;;;2.00;;
36315;SDS011;22343;50.820;2.666;2022-12-07T05:26:49;3.03;;;2.00;;
36315;SDS011;22343;50.820;2.666;2022-12-07T05:29:34;5.10;;;2.03;;
36315;SDS011;22343;50.820;2.666;2022-12-07T05:32:19;5.00;;;1.87;;
36315;SDS011;22343;50.820;2.666;2022-12-07T05:35:04;3.83;;;2.07;;
36315;SDS011;22343;50.820;2.666;2022-12-07T05:37:49;4.87;;;2.10;;
36315;SDS011;22343;50.820;2.666;2022-12-07T05:40:34;5.60;;;1.90;;
36315;SDS011;22343;50.820;2.666;2022-12-07T05:43:18;2.33;;;1.60;;
36315;SDS011;22343;50.820;2.666;2022-12-07T05:46:04;5.83;;;1.90;;
36315;SDS011;22343;50.820;2.666;2022-12-07T05:48:48;3.97;;;1.90;;
36315;SDS011;22343;50.820;2.666;2022-12-07T05:51:34;5.07;;;1.90;;
36315;SDS011;22343;50.820;2.666;2022-12-07T05:54:18;3.17;;;1.90;;
36315;SDS011;22343;50.820;2.666;2022-12-07T05:57:03;3.53;;;1.80;;
36315;SDS011;22343;50.820;2.666;2022-12-07T05:59:47;4.50;;;1.77;;
36315;SDS011;22343;50.820;2.666;2022-12-07T06:02:31;4.20;;;2.00;;
36315;SDS011;22343;50.820;2.666;2022-12-07T06:05:17;2.80;;;1.70;;
36315;SDS011;22343;50.820;2.666;2022-12-07T06:08:04;4.63;;;1.90;;
36315;SDS011;22343;50.820;2.666;2022-12-07T06:10:49;5.63;;;2.10;;
36315;SDS011;22343;50.820;2.666;2022-12-07T06:13:56;6.37;;;2.20;;
36315;SDS011;22343;50.820;2.666;2022-12-07T06:16:40;5.23;;;2.20;;
36315;SDS011;22343;50.820;2.666;2022-12-07T06:19:24;3.53;;;2.00;;
36315;SDS011;22343;50.820;2.666;2022-12-07T06:22:09;4.30;;;2.50;;
36315;SDS011;22343;50.820;2.666;2022-12-07T06:24:55;12.10;;;8.37;;
36315;SDS011;22343;50.820;2.666;2022-12-07T06:27:39;37.87;;;21.97;;
36315;SDS011;22343;50.820;2.666;2022-12-07T06:30:24;31.80;;;17.00;;
36315;SDS011;22343;50.820;2.666;2022-12-07T06:33:08;11.73;;;5.83;;
36315;SDS011;22343;50.820;2.666;2022-12-07T06:35:52;5.73;;;3.17;;
36315;SDS011;22343;50.820;2.666;2022-12-07T06:38:37;7.30;;;2.97;;
36315;SDS011;22343;50.820;2.666;2022-12-07T06:41:23;6.47;;;3.30;;
36315;SDS011;22343;50.820;2.666;2022-12-07T06:44:08;8.17;;;3.80;;
36315;SDS011;22343;50.820;2.666;2022-12-07T06:46:54;7.00;;;3.50;;
36315;SDS011;22343;50.820;2.666;2022-12-07T06:53:01;6.10;;;3.17;;
36315;SDS011;22343;50.820;2.666;2022-12-07T06:55:45;7.00;;;3.70;;
36315;SDS011;22343;50.820;2.666;2022-12-07T06:58:29;5.43;;;3.43;;
36315;SDS011;22343;50.820;2.666;2022-12-07T07:01:16;6.57;;;3.80;;
36315;SDS011;22343;50.820;2.666;2022-12-07T07:04:01;4.53;;;3.10;;
36315;SDS011;22343;50.820;2.666;2022-12-07T07:06:46;7.37;;;3.23;;
36315;SDS011;22343;50.820;2.666;2022-12-07T07:09:30;6.10;;;3.17;;
36315;SDS011;22343;50.820;2.666;2022-12-07T07:12:15;5.83;;;3.10;;
36315;SDS011;22343;50.820;2.666;2022-12-07T07:14:59;7.93;;;2.90;;
36315;SDS011;22343;50.820;2.666;2022-12-07T07:17:45;4.70;;;3.50;;
36315;SDS011;22343;50.820;2.666;2022-12-07T07:20:30;16.97;;;8.63;;
36315;SDS011;22343;50.820;2.666;2022-12-07T07:23:15;18.20;;;8.83;;
36315;SDS011;22343;50.820;2.666;2022-12-07T07:26:00;39.37;;;16.90;;
36315;SDS011;22343;50.820;2.666;2022-12-07T07:28:46;31.10;;;15.90;;
36315;SDS011;22343;50.820;2.666;2022-12-07T07:31:31;19.50;;;10.30;;
36315;SDS011;22343;50.820;2.666;2022-12-07T07:34:15;12.83;;;7.20;;
36315;SDS011;22343;50.820;2.666;2022-12-07T07:37:00;11.27;;;5.40;;
36315;SDS011;22343;50.820;2.666;2022-12-07T07:39:46;11.20;;;4.60;;
36315;SDS011;22343;50.820;2.666;2022-12-07T07:42:30;8.77;;;4.70;;
36315;SDS011;22343;50.820;2.666;2022-12-07T07:45:16;10.43;;;4.60;;
36315;SDS011;22343;50.820;2.666;2022-12-07T07:48:01;6.93;;;4.20;;
36315;SDS011;22343;50.820;2.666;2022-12-07T07:50:47;14.47;;;6.97;;
36315;SDS011;22343;50.820;2.666;2022-12-07T07:53:33;17.53;;;7.00;;
36315;SDS011;22343;50.820;2.666;2022-12-07T07:56:18;10.47;;;4.90;;
36315;SDS011;22343;50.820;2.666;2022-12-07T07:59:03;14.13;;;7.97;;
36315;SDS011;22343;50.820;2.666;2022-12-07T08:01:47;15.63;;;8.20;;
36315;SDS011;22343;50.820;2.666;2022-12-07T08:04:32;12.97;;;6.20;;
36315;SDS011;22343;50.820;2.666;2022-12-07T08:07:16;10.07;;;4.37;;
36315;SDS011;22343;50.820;2.666;2022-12-07T08:10:01;6.70;;;4.27;;
36315;SDS011;22343;50.820;2.666;2022-12-07T08:12:47;10.00;;;4.33;;
36315;SDS011;22343;50.820;2.666;2022-12-07T08:15:50;8.10;;;3.90;;
36315;SDS011;22343;50.820;2.666;2022-12-07T08:18:36;13.20;;;4.20;;
36315;SDS011;22343;50.820;2.666;2022-12-07T08:21:40;11.30;;;6.43;;
36315;SDS011;22343;50.820;2.666;2022-12-07T08:24:25;7.80;;;4.10;;
36315;SDS011;22343;50.820;2.666;2022-12-07T08:27:13;7.37;;;4.10;;
36315;SDS011;22343;50.820;2.666;2022-12-07T08:29:58;6.97;;;4.13;;
36315;SDS011;22343;50.820;2.666;2022-12-07T08:32:44;5.93;;;3.10;;
36315;SDS011;22343;50.820;2.666;2022-12-07T08:35:32;8.27;;;3.13;;
36315;SDS011;22343;50.820;2.666;2022-12-07T08:38:18;6.70;;;2.90;;
36315;SDS011;22343;50.820;2.666;2022-12-07T08:41:03;7.03;;;2.47;;
36315;SDS011;22343;50.820;2.666;2022-12-07T08:43:48;7.40;;;3.40;;
36315;SDS011;22343;50.820;2.666;2022-12-07T08:46:41;8.43;;;4.50;;
36315;SDS011;22343;50.820;2.666;2022-12-07T08:49:47;9.17;;;5.20;;
36315;SDS011;22343;50.820;2.666;2022-12-07T08:52:35;14.00;;;7.43;;
36315;SDS011;22343;50.820;2.666;2022-12-07T08:55:22;9.77;;;5.17;;
36315;SDS011;22343;50.820;2.666;2022-12-07T08:58:07;11.47;;;6.20;;
36315;SDS011;22343;50.820;2.666;2022-12-07T09:00:55;9.63;;;4.77;;
36315;SDS011;22343;50.820;2.666;2022-12-07T09:03:39;10.93;;;5.53;;
36315;SDS011;22343;50.820;2.666;2022-12-07T09:06:24;9.77;;;5.23;;
36315;SDS011;22343;50.820;2.666;2022-12-07T09:09:09;6.37;;;4.53;;
36315;SDS011;22343;50.820;2.666;2022-12-07T09:11:55;11.83;;;4.70;;
36315;SDS011;22343;50.820;2.666;2022-12-07T09:14:40;8.03;;;5.10;;
36315;SDS011;22343;50.820;2.666;2022-12-07T09:17:27;8.53;;;4.13;;
36315;SDS011;22343;50.820;2.666;2022-12-07T09:20:12;7.93;;;4.10;;
36315;SDS011;22343;50.820;2.666;2022-12-07T09:22:58;9.97;;;4.13;;
36315;SDS011;22343;50.820;2.666;2022-12-07T09:25:43;6.63;;;3.83;;
36315;SDS011;22343;50.820;2.666;2022-12-07T09:28:27;9.07;;;3.90;;
36315;SDS011;22343;50.820;2.666;2022-12-07T09:31:12;8.70;;;3.73;;
36315;SDS011;22343;50.820;2.666;2022-12-07T09:33:59;8.73;;;4.43;;
36315;SDS011;22343;50.820;2.666;2022-12-07T09:36:44;7.83;;;4.63;;
36315;SDS011;22343;50.820;2.666;2022-12-07T09:39:29;12.10;;;4.20;;
36315;SDS011;22343;50.820;2.666;2022-12-07T09:42:33;10.10;;;4.63;;
36315;SDS011;22343;50.820;2.666;2022-12-07T09:45:24;8.67;;;4.60;;
36315;SDS011;22343;50.820;2.666;2022-12-07T09:48:16;8.20;;;5.00;;
36315;SDS011;22343;50.820;2.666;2022-12-07T09:51:13;12.37;;;7.27;;
36315;SDS011;22343;50.820;2.666;2022-12-07T09:54:04;13.97;;;7.53;;
36315;SDS011;22343;50.820;2.666;2022-12-07T09:56:49;13.90;;;7.23;;
36315;SDS011;22343;50.820;2.666;2022-12-07T09:59:33;12.80;;;6.30;;
36315;SDS011;22343;50.820;2.666;2022-12-07T10:02:28;12.20;;;5.40;;
36315;SDS011;22343;50.820;2.666;2022-12-07T10:05:27;14.30;;;5.27;;
36315;SDS011;22343;50.820;2.666;2022-12-07T10:08:15;11.37;;;4.87;;
36315;SDS011;22343;50.820;2.666;2022-12-07T10:11:02;7.70;;;5.10;;
36315;SDS011;22343;50.820;2.666;2022-12-07T10:13:49;13.07;;;5.60;;
36315;SDS011;22343;50.820;2.666;2022-12-07T10:16:39;9.03;;;4.93;;
36315;SDS011;22343;50.820;2.666;2022-12-07T10:22:28;12.80;;;5.50;;
36315;SDS011;22343;50.820;2.666;2022-12-07T10:25:19;9.90;;;5.00;;
36315;SDS011;22343;50.820;2.666;2022-12-07T10:31:18;8.77;;;4.73;;
36315;SDS011;22343;50.820;2.666;2022-12-07T10:34:11;9.93;;;5.13;;
36315;SDS011;22343;50.820;2.666;2022-12-07T10:39:56;12.10;;;5.20;;
36315;SDS011;22343;50.820;2.666;2022-12-07T10:42:41;12.70;;;5.50;;
36315;SDS011;22343;50.820;2.666;2022-12-07T10:45:25;11.33;;;4.93;;
36315;SDS011;22343;50.820;2.666;2022-12-07T10:48:12;8.37;;;5.13;;
36315;SDS011;22343;50.820;2.666;2022-12-07T10:57:19;8.90;;;4.70;;
36315;SDS011;22343;50.820;2.666;2022-12-07T11:00:21;7.37;;;3.20;;
36315;SDS011;22343;50.820;2.666;2022-12-07T11:09:47;16.00;;;5.83;;
36315;SDS011;22343;50.820;2.666;2022-12-07T11:12:47;9.30;;;5.07;;
36315;SDS011;22343;50.820;2.666;2022-12-07T11:16:06;6.70;;;4.30;;
36315;SDS011;22343;50.820;2.666;2022-12-07T11:19:34;7.07;;;4.07;;
36315;SDS011;22343;50.820;2.666;2022-12-07T11:34:12;6.80;;;3.00;;
36315;SDS011;22343;50.820;2.666;2022-12-07T11:37:00;6.20;;;3.10;;
36315;SDS011;22343;50.820;2.666;2022-12-07T11:39:50;6.93;;;3.53;;
36315;SDS011;22343;50.820;2.666;2022-12-07T11:42:37;8.90;;;2.77;;
36315;SDS011;22343;50.820;2.666;2022-12-07T11:45:29;4.23;;;2.63;;
36315;SDS011;22343;50.820;2.666;2022-12-07T11:48:21;6.33;;;2.93;;
36315;SDS011;22343;50.820;2.666;2022-12-07T11:51:07;6.27;;;3.27;;
36315;SDS011;22343;50.820;2.666;2022-12-07T11:53:57;8.63;;;3.80;;
36315;SDS011;22343;50.820;2.666;2022-12-07T11:56:45;5.97;;;3.53;;
36315;SDS011;22343;50.820;2.666;2022-12-07T11:59:40;5.67;;;3.63;;
36315;SDS011;22343;50.820;2.666;2022-12-07T12:02:38;5.90;;;3.63;;
36315;SDS011;22343;50.820;2.666;2022-12-07T12:05:38;6.80;;;3.10;;
36315;SDS011;22343;50.820;2.666;2022-12-07T12:18:39;5.67;;;2.77;;
36315;SDS011;22343;50.820;2.666;2022-12-07T12:21:37;5.73;;;2.60;;
36315;SDS011;22343;50.820;2.666;2022-12-07T12:24:22;5.20;;;2.67;;
36315;SDS011;22343;50.820;2.666;2022-12-07T12:27:32;4.97;;;2.50;;
36315;SDS011;22343;50.820;2.666;2022-12-07T12:30:30;4.73;;;2.53;;
36315;SDS011;22343;50.820;2.666;2022-12-07T12:33:28;4.73;;;2.40;;
36315;SDS011;22343;50.820;2.666;2022-12-07T12:42:02;3.97;;;2.70;;
36315;SDS011;22343;50.820;2.666;2022-12-07T12:45:05;7.43;;;2.77;;
36315;SDS011;22343;50.820;2.666;2022-12-07T12:51:48;6.53;;;3.87;;
36315;SDS011;22343;50.820;2.666;2022-12-07T13:00:24;9.97;;;4.37;;
36315;SDS011;22343;50.820;2.666;2022-12-07T13:03:31;7.30;;;2.93;;
36315;SDS011;22343;50.820;2.666;2022-12-07T13:09:23;6.80;;;3.30;;
36315;SDS011;22343;50.820;2.666;2022-12-07T13:12:14;9.83;;;3.57;;
36315;SDS011;22343;50.820;2.666;2022-12-07T13:15:00;7.63;;;3.23;;
36315;SDS011;22343;50.820;2.666;2022-12-07T13:17:54;6.40;;;3.70;;
36315;SDS011;22343;50.820;2.666;2022-12-07T13:20:47;6.00;;;3.60;;
36315;SDS011;22343;50.820;2.666;2022-12-07T13:26:38;5.03;;;3.00;;
36315;SDS011;22343;50.820;2.666;2022-12-07T13:29:28;5.00;;;2.70;;
36315;SDS011;22343;50.820;2.666;2022-12-07T13:32:23;6.93;;;3.40;;
36315;SDS011;22343;50.820;2.666;2022-12-07T13:38:23;6.77;;;3.90;;
36315;SDS011;22343;50.820;2.666;2022-12-07T13:41:22;7.93;;;4.40;;
36315;SDS011;22343;50.820;2.666;2022-12-07T13:44:11;6.23;;;3.60;;
36315;SDS011;22343;50.820;2.666;2022-12-07T13:47:05;5.90;;;3.73;;
36315;SDS011;22343;50.820;2.666;2022-12-07T13:50:30;9.60;;;4.30;;
36315;SDS011;22343;50.820;2.666;2022-12-07T13:53:16;7.10;;;4.03;;
36315;SDS011;22343;50.820;2.666;2022-12-07T13:56:02;8.40;;;4.60;;
36315;SDS011;22343;50.820;2.666;2022-12-07T13:58:47;8.23;;;4.73;;
36315;SDS011;22343;50.820;2.666;2022-12-07T14:01:32;8.03;;;4.77;;
36315;SDS011;22343;50.820;2.666;2022-12-07T14:04:35;8.33;;;5.00;;
36315;SDS011;22343;50.820;2.666;2022-12-07T14:07:25;9.53;;;4.90;;
36315;SDS011;22343;50.820;2.666;2022-12-07T14:16:45;6.80;;;4.63;;
36315;SDS011;22343;50.820;2.666;2022-12-07T14:20:00;7.17;;;4.73;;
36315;SDS011;22343;50.820;2.666;2022-12-07T14:22:53;9.57;;;5.23;;
36315;SDS011;22343;50.820;2.666;2022-12-07T14:25:51;6.13;;;3.27;;
36315;SDS011;22343;50.820;2.666;2022-12-07T14:28:40;6.23;;;4.00;;
36315;SDS011;22343;50.820;2.666;2022-12-07T14:31:29;6.43;;;3.10;;
36315;SDS011;22343;50.820;2.666;2022-12-07T14:34:19;5.13;;;3.43;;
36315;SDS011;22343;50.820;2.666;2022-12-07T14:37:08;8.70;;;3.70;;
36315;SDS011;22343;50.820;2.666;2022-12-07T14:39:54;5.70;;;4.30;;
36315;SDS011;22343;50.820;2.666;2022-12-07T14:42:47;7.50;;;5.83;;
36315;SDS011;22343;50.820;2.666;2022-12-07T14:45:38;7.27;;;4.20;;
36315;SDS011;22343;50.820;2.666;2022-12-07T14:48:25;6.87;;;4.57;;
36315;SDS011;22343;50.820;2.666;2022-12-07T14:51:10;6.80;;;4.37;;
36315;SDS011;22343;50.820;2.666;2022-12-07T14:53:55;7.17;;;3.80;;
36315;SDS011;22343;50.820;2.666;2022-12-07T14:56:40;6.97;;;3.90;;
36315;SDS011;22343;50.820;2.666;2022-12-07T14:59:25;4.30;;;3.43;;
36315;SDS011;22343;50.820;2.666;2022-12-07T15:02:15;5.90;;;3.90;;
36315;SDS011;22343;50.820;2.666;2022-12-07T15:05:01;6.40;;;4.10;;
36315;SDS011;22343;50.820;2.666;2022-12-07T15:07:47;6.23;;;4.27;;
36315;SDS011;22343;50.820;2.666;2022-12-07T15:10:34;6.73;;;4.00;;
36315;SDS011;22343;50.820;2.666;2022-12-07T15:13:22;7.33;;;4.13;;
36315;SDS011;22343;50.820;2.666;2022-12-07T15:16:25;9.70;;;4.80;;
36315;SDS011;22343;50.820;2.666;2022-12-07T15:19:14;7.60;;;4.67;;
36315;SDS011;22343;50.820;2.666;2022-12-07T15:22:01;8.27;;;4.10;;
36315;SDS011;22343;50.820;2.666;2022-12-07T15:24:46;8.10;;;4.17;;
36315;SDS011;22343;50.820;2.666;2022-12-07T15:27:33;8.10;;;4.53;;
36315;SDS011;22343;50.820;2.666;2022-12-07T15:30:18;6.67;;;5.00;;
36315;SDS011;22343;50.820;2.666;2022-12-07T15:33:04;9.97;;;5.90;;
36315;SDS011;22343;50.820;2.666;2022-12-07T15:35:50;8.67;;;5.87;;
36315;SDS011;22343;50.820;2.666;2022-12-07T15:38:34;9.60;;;6.53;;
36315;SDS011;22343;50.820;2.666;2022-12-07T15:41:21;9.60;;;6.53;;
36315;SDS011;22343;50.820;2.666;2022-12-07T15:44:06;8.73;;;6.13;;
36315;SDS011;22343;50.820;2.666;2022-12-07T15:47:09;9.33;;;5.70;;
36315;SDS011;22343;50.820;2.666;2022-12-07T15:49:55;11.77;;;5.90;;
36315;SDS011;22343;50.820;2.666;2022-12-07T15:52:40;11.13;;;7.70;;
36315;SDS011;22343;50.820;2.666;2022-12-07T15:55:24;11.17;;;6.00;;
36315;SDS011;22343;50.820;2.666;2022-12-07T15:58:09;6.80;;;5.67;;
36315;SDS011;22343;50.820;2.666;2022-12-07T16:00:53;13.90;;;8.83;;
36315;SDS011;22343;50.820;2.666;2022-12-07T16:03:38;13.80;;;10.30;;
36315;SDS011;22343;50.820;2.666;2022-12-07T16:06:23;8.93;;;6.77;;
36315;SDS011;22343;50.820;2.666;2022-12-07T16:09:07;11.43;;;6.17;;
36315;SDS011;22343;50.820;2.666;2022-12-07T16:11:51;8.00;;;6.43;;
36315;SDS011;22343;50.820;2.666;2022-12-07T16:14:37;7.47;;;5.40;;
36315;SDS011;22343;50.820;2.666;2022-12-07T16:17:22;9.17;;;6.00;;
36315;SDS011;22343;50.820;2.666;2022-12-07T16:20:07;9.83;;;6.40;;
36315;SDS011;22343;50.820;2.666;2022-12-07T16:22:52;8.70;;;5.17;;
36315;SDS011;22343;50.820;2.666;2022-12-07T16:25:39;10.20;;;5.50;;
36315;SDS011;22343;50.820;2.666;2022-12-07T16:28:24;9.47;;;6.00;;
36315;SDS011;22343;50.820;2.666;2022-12-07T16:31:12;8.57;;;5.57;;
36315;SDS011;22343;50.820;2.666;2022-12-07T16:34:01;7.63;;;5.87;;
36315;SDS011;22343;50.820;2.666;2022-12-07T16:36:45;11.70;;;5.53;;
36315;SDS011;22343;50.820;2.666;2022-12-07T16:39:34;12.93;;;6.00;;
36315;SDS011;22343;50.820;2.666;2022-12-07T16:42:18;10.27;;;5.80;;
36315;SDS011;22343;50.820;2.666;2022-12-07T16:45:03;9.27;;;5.83;;
36315;SDS011;22343;50.820;2.666;2022-12-07T16:47:47;11.33;;;6.20;;
36315;SDS011;22343;50.820;2.666;2022-12-07T16:50:35;9.80;;;6.10;;
36315;SDS011;22343;50.820;2.666;2022-12-07T16:53:24;9.23;;;5.90;;
36315;SDS011;22343;50.820;2.666;2022-12-07T16:56:09;9.00;;;6.00;;
36315;SDS011;22343;50.820;2.666;2022-12-07T16:58:58;11.33;;;6.63;;
36315;SDS011;22343;50.820;2.666;2022-12-07T17:01:43;9.47;;;6.70;;
36315;SDS011;22343;50.820;2.666;2022-12-07T17:04:28;13.33;;;6.97;;
36315;SDS011;22343;50.820;2.666;2022-12-07T17:07:12;13.07;;;7.10;;
36315;SDS011;22343;50.820;2.666;2022-12-07T17:09:56;10.63;;;8.17;;
36315;SDS011;22343;50.820;2.666;2022-12-07T17:12:43;14.67;;;9.37;;
36315;SDS011;22343;50.820;2.666;2022-12-07T17:15:27;12.90;;;8.87;;
36315;SDS011;22343;50.820;2.666;2022-12-07T17:18:12;15.27;;;9.63;;
36315;SDS011;22343;50.820;2.666;2022-12-07T17:21:01;16.67;;;10.40;;
36315;SDS011;22343;50.820;2.666;2022-12-07T17:23:49;16.53;;;10.23;;
36315;SDS011;22343;50.820;2.666;2022-12-07T17:26:34;17.70;;;9.70;;
36315;SDS011;22343;50.820;2.666;2022-12-07T17:29:19;13.20;;;8.63;;
36315;SDS011;22343;50.820;2.666;2022-12-07T17:32:03;15.37;;;8.13;;
36315;SDS011;22343;50.820;2.666;2022-12-07T17:34:48;12.43;;;8.10;;
36315;SDS011;22343;50.820;2.666;2022-12-07T17:37:34;10.53;;;7.43;;
36315;SDS011;22343;50.820;2.666;2022-12-07T17:40:26;13.00;;;7.70;;
36315;SDS011;22343;50.820;2.666;2022-12-07T17:43:10;10.00;;;7.57;;
36315;SDS011;22343;50.820;2.666;2022-12-07T17:45:55;10.03;;;7.57;;
36315;SDS011;22343;50.820;2.666;2022-12-07T17:48:40;11.83;;;7.30;;
36315;SDS011;22343;50.820;2.666;2022-12-07T17:51:26;12.93;;;7.93;;
36315;SDS011;22343;50.820;2.666;2022-12-07T17:54:29;12.53;;;7.30;;
36315;SDS011;22343;50.820;2.666;2022-12-07T17:57:13;9.63;;;7.40;;
36315;SDS011;22343;50.820;2.666;2022-12-07T17:59:59;10.37;;;7.10;;
36315;SDS011;22343;50.820;2.666;2022-12-07T18:02:44;14.57;;;8.40;;
36315;SDS011;22343;50.820;2.666;2022-12-07T18:05:28;18.90;;;12.10;;
36315;SDS011;22343;50.820;2.666;2022-12-07T18:08:12;22.73;;;13.10;;
36315;SDS011;22343;50.820;2.666;2022-12-07T18:10:57;18.93;;;10.77;;
36315;SDS011;22343;50.820;2.666;2022-12-07T18:13:43;16.90;;;10.43;;
36315;SDS011;22343;50.820;2.666;2022-12-07T18:16:28;15.20;;;9.87;;
36315;SDS011;22343;50.820;2.666;2022-12-07T18:19:15;16.57;;;9.80;;
36315;SDS011;22343;50.820;2.666;2022-12-07T18:22:00;15.80;;;9.47;;
36315;SDS011;22343;50.820;2.666;2022-12-07T18:24:44;15.73;;;10.10;;
36315;SDS011;22343;50.820;2.666;2022-12-07T18:27:29;19.87;;;11.83;;
36315;SDS011;22343;50.820;2.666;2022-12-07T18:30:15;14.37;;;10.67;;
36315;SDS011;22343;50.820;2.666;2022-12-07T18:32:59;20.50;;;12.87;;
36315;SDS011;22343;50.820;2.666;2022-12-07T18:35:47;16.97;;;11.50;;